Back to top

Dickinson, ND weather

Theodore Roosevelt Regional Airport, Dickinson, ND: 7/22/2019 13:56
Visibility10 statute milesclear sky
View 7-Day Forecast
Area Summary
Sky/CloudsSky Clear
Weather [last 24 hours]None
Pressure30.29 in.Hg (1026 hPa)
Dew Point52 °F (11.1 °C)
Relative Humidity40.3 %
Temperature78.1 °F (25.6 °C)red thermometer
Reading TimeMinimum to Maximum Temperature
6-hr ending 7/22@11:5650 °F to 77 °F (10 °C to 25 °C)
6-hr ending 7/22@05:5650 °F to 55.9 °F (10 °C to 13.3 °C)
6-hr ending 7/21@23:5655 °F to 73 °F (12.8 °C to 22.8 °C)
6-hr ending 7/21@17:5669.1 °F to 75 °F (20.6 °C to 23.9 °C)
24-hr ending 7/22@00:5652 °F to 75 °F (11.1 °C to 23.9 °C)
Wind8.06 MPH (7 KT) green arrow pointing 157.5 degrees
Wind FromSouth/Southeast (160 Degrees)
Twilight Begins04:41Sunshine Yesterday
Sunrise05:18N/A
Sunset20:37
Twilight Ends21:13
METARKDIK 221956Z AUTO 16007KT 10SM CLR 26/11 A3029 RMK AO2 SLP248 T02560111
Tags: